Chaska, MN (55318)

5:12 AM CST on February 09, 2016 (GMT -0600)
Hammers Haven | | Change Station
CLOSE
Current Station
Personal Weather Station
Location: Chaska, MN
Elevation: 935 ft
Nearby Weather Stations

Elev 935 ft 44.82 °N, 93.61 °W | Updated 1 minute ago

Partly Cloudy
Partly Cloudy
6.9 °F
Feels Like 7 °F
N
3.0
Wind Variable Wind from NNW
Gusts 16.0 mph

Today
High -- | Low -- °F
--% Chance of Precip.
Yesterday
High -- | Low -- °F
Precip. -- in
Pressure 30.10 in
Visibility 10.0 miles
Clouds Mostly Cloudy 7500 ft
Windchill 7 °F
Dew Point 1 °F
Humidity 75%
Rainfall 0.00 in
Snow Depth Not available.
7:24 AM 5:33 PM
New Moon, 1% visible
METAR KFCM 091053Z AUTO 33013KT 10SM BKN075 M13/M18 A3004 RMK AO2 SLP192 T11331183
Pressure 30.10 in
Visibility 10.0 miles
Clouds Mostly Cloudy 7500 ft
Windchill 7 °F
Dew Point 1 °F
Humidity 75%
Rainfall 0.00 in
Snow Depth Not available.
7:24 AM 5:33 PM
New Moon, 1% visible
METAR KFCM 091053Z AUTO 33013KT 10SM BKN075 M13/M18 A3004 RMK AO2 SLP192 T11331183

10-Day Weather Forecast

Almanac

Astronomy

Feb. 09, 2016 Rise Set
Actual Time
Civil Twilight
Nautical Twilight
Astronomical Twilight
Moon
Length of Visible Light
Length of Day
Tomorrow will be .
, % of the Moon is Illuminated

Today's Extremes

State Highs State Lows

Community

WunderPhotos

Upload Photos

1,891,565 photos uploaded!

WunderBlog® & News

Nearby

Air Quality

  Air Quality AQ Index Pollutant
Not available.

Snow Depth

Station Depth Elevation

Earthquake Activity

City Distance Mag. Time & Date
Minimum magnitude displayed is 2.5.

Coastal Water Temperatures

Place Temperature

Stations

Nearby Weather Stations

Station Location Temp. Windchill Dew Point Humidity Wind Precip. Elev Updated Type
                   

Watches & Warnings

There are currently no watches in effect.